Flint, Michigan
Current Conditions -  °F | °C
As of 5:53 PM on Saturday 25 Oct 2014 (Local Time) from KFNT Reporting Station
Clear Clear  
Wind Chill: 64°   Ceiling: Unl
Heat Index: 64°   Visibility: 10mi
Dew Point: 34°   Wind: 18mph
Humidity: 33%   Direction: 280°W
Pressure: 29.74"   Gusts: 30mph
Location:  43.01°N, 83.68°W
Report Text: KFNT 252153Z 28016G26KT 10SM CLR 18/01 A2974 RMK AO2 PK WND 27034/2123 SLP070 T01780011
Loading
Personal Weather Stations






























Interactive Weather Map New forecast layout! Learn more

10-Day Weather Forecast

Advertisements
Track Severe Weather on mobile